Maria Digna Dos — EA7975 — position and weather

sailwx.info

Track history (hours):
 
Tides and Currents Weather Stations Pressure Air Temp Water Temp Dewpoint Dewpoint Depression Visibility Wind Speed Wind Dir Waves Ship Positions

Maria Digna Dos

Last reported at 2018-Jul-10 05:58 UTC. Time now 2018-Jul-17 05:32 UTC.
Position N 44°32' W 003°37'.

Length 26 m; draft 3.5 m.

Type: Fishing. MMSI: 224051160.

Date/timePositionNaut miles runAvg speedWind from/ knotsBaromVisibWave heightAir tempDewpointWater temp
2018-Jul-10 05:58N 44°32' W 003°37'4 6.5
2018-Jul-10 05:25N 44°28' W 003°39'3 6.5
2018-Jul-10 04:58N 44°26' W 003°41'3 5.1
2018-Jul-10 04:28N 44°25' W 003°44'2 3.5
2018-Jul-10 03:53N 44°26' W 003°45'0 0.6
2018-Jul-10 03:30N 44°27' W 003°45'0 0.6
2018-Jul-10 02:53N 44°27' W 003°45'0 0.5
2018-Jul-10 02:02N 44°27' W 003°45'0 0.6
2018-Jul-10 01:33N 44°28' W 003°45'0 0.4
2018-Jul-10 01:18N 44°28' W 003°45'0 0.5
2018-Jul-10 00:54N 44°28' W 003°45'1 0.4
2018-Jul-09 22:39N 44°29' W 003°46'0 0.5
2018-Jul-09 22:18N 44°29' W 003°46'0 0.3
2018-Jul-09 21:59N 44°29' W 003°46'2 2.8
2018-Jul-09 21:22N 44°29' W 003°43'0 1.0
2018-Jul-09 21:00N 44°29' W 003°43'1 2.6
2018-Jul-09 20:30N 44°27' W 003°44'1 1.3
2018-Jul-09 19:32N 44°26' W 003°45'1 6.6
2018-Jul-09 19:24N 44°25' W 003°45'3 6.6
2018-Jul-09 19:00N 44°23' W 003°47'1 2.4
2018-Jul-09 18:27N 44°23' W 003°49'0 0.9
2018-Jul-09 18:00N 44°22' W 003°49'4 0.2
2018-Jul-08 20:06N 44°19' W 003°54'1 5.2
2018-Jul-08 19:56N 44°19' W 003°52'1 0.8
2018-Jul-08 18:40N 44°18' W 003°54'1 0.3
2018-Jul-08 14:53N 44°18' W 003°52'0 0.4
2018-Jul-08 13:50N 44°18' W 003°53'2 4.8
2018-Jul-08 13:28N 44°16' W 003°53'0 0.3
2018-Jul-08 12:58N 44°16' W 003°53'  
Track history (hours):
 
Tides and Currents Weather Stations Pressure Air Temp Water Temp Dewpoint Dewpoint Depression Visibility Wind Speed Wind Dir Waves Ship Positions

Maria Digna Dos

Last reported at 2018-Jul-10 05:58 UTC. Time now 2018-Jul-17 05:32 UTC.
Position N 44°32' W 003°37'.

Length 26 m; draft 3.5 m.

Type: Fishing. MMSI: 224051160.

Date/timePositionNaut miles runAvg speedWind from/ knotsBaromVisibWave heightAir tempDewpointWater temp
2018-Jul-10 05:58N 44°32' W 003°37'4 6.5
2018-Jul-10 05:25N 44°28' W 003°39'3 6.5
2018-Jul-10 04:58N 44°26' W 003°41'3 5.1
2018-Jul-10 04:28N 44°25' W 003°44'2 3.5
2018-Jul-10 03:53N 44°26' W 003°45'0 0.6
2018-Jul-10 03:30N 44°27' W 003°45'0 0.6
2018-Jul-10 02:53N 44°27' W 003°45'0 0.5
2018-Jul-10 02:02N 44°27' W 003°45'0 0.6
2018-Jul-10 01:33N 44°28' W 003°45'0 0.4
2018-Jul-10 01:18N 44°28' W 003°45'0 0.5
2018-Jul-10 00:54N 44°28' W 003°45'1 0.4
2018-Jul-09 22:39N 44°29' W 003°46'0 0.5
2018-Jul-09 22:18N 44°29' W 003°46'0 0.3
2018-Jul-09 21:59N 44°29' W 003°46'2 2.8
2018-Jul-09 21:22N 44°29' W 003°43'0 1.0
2018-Jul-09 21:00N 44°29' W 003°43'1 2.6
2018-Jul-09 20:30N 44°27' W 003°44'1 1.3
2018-Jul-09 19:32N 44°26' W 003°45'1 6.6
2018-Jul-09 19:24N 44°25' W 003°45'3 6.6
2018-Jul-09 19:00N 44°23' W 003°47'1 2.4
2018-Jul-09 18:27N 44°23' W 003°49'0 0.9
2018-Jul-09 18:00N 44°22' W 003°49'4 0.2
2018-Jul-08 20:06N 44°19' W 003°54'1 5.2
2018-Jul-08 19:56N 44°19' W 003°52'1 0.8
2018-Jul-08 18:40N 44°18' W 003°54'1 0.3
2018-Jul-08 14:53N 44°18' W 003°52'0 0.4
2018-Jul-08 13:50N 44°18' W 003°53'2 4.8
2018-Jul-08 13:28N 44°16' W 003°53'0 0.3
2018-Jul-08 12:58N 44°16' W 003°53'  

Dump ship's entire track history